createdAt,value
2019-05-05T00:02:15.369Z,14.05
2019-05-05T00:04:42.247Z,14.03
2019-05-05T00:07:09.151Z,13.94
2019-05-05T00:09:36.098Z,13.98
2019-05-05T00:12:05.177Z,14.03
2019-05-05T00:14:31.545Z,13.94
2019-05-05T00:16:58.781Z,13.84
2019-05-05T00:19:32.448Z,13.88
2019-05-05T00:21:55.113Z,13.90
2019-05-05T00:24:24.402Z,13.91
2019-05-05T00:26:51.547Z,13.88
2019-05-05T00:29:18.516Z,13.88
2019-05-05T00:31:45.537Z,13.82
2019-05-05T00:34:12.511Z,13.78
2019-05-05T00:36:40.458Z,13.74
2019-05-05T00:39:07.637Z,13.64
2019-05-05T00:41:34.705Z,13.61
2019-05-05T00:44:01.763Z,13.60
2019-05-05T00:46:30.572Z,13.49
2019-05-05T00:48:57.228Z,13.48
2019-05-05T00:51:24.535Z,13.46
2019-05-05T00:53:51.574Z,13.53
2019-05-05T00:56:18.534Z,13.61
2019-05-05T00:58:45.465Z,13.66
2019-05-05T01:01:14.321Z,13.64
2019-05-05T01:03:40.914Z,13.68
2019-05-05T01:06:07.777Z,13.73
2019-05-05T01:08:35.270Z,13.76
2019-05-05T01:11:04.154Z,13.76
2019-05-05T01:13:31.153Z,13.84
2019-05-05T01:15:58.021Z,13.86
2019-05-05T01:18:24.880Z,13.88
2019-05-05T01:20:51.820Z,13.95
2019-05-05T01:23:18.999Z,13.96
2019-05-05T01:25:48.654Z,13.94
2019-05-05T01:28:14.531Z,13.89
2019-05-05T01:30:41.481Z,13.88
2019-05-05T01:33:08.372Z,13.83
2019-05-05T01:35:35.255Z,13.68
2019-05-05T01:38:04.890Z,13.62
2019-05-05T01:40:31.872Z,13.62
2019-05-05T01:42:58.830Z,13.62
2019-05-05T01:45:25.686Z,13.65
2019-05-05T01:47:54.528Z,13.70
2019-05-05T01:50:24.688Z,13.74
2019-05-05T01:52:51.148Z,13.76
2019-05-05T01:55:18.285Z,13.77
2019-05-05T01:57:45.170Z,13.73
2019-05-05T02:00:12.098Z,13.72
2019-05-05T02:02:39.119Z,13.77
2019-05-05T02:05:06.075Z,13.79
2019-05-05T02:07:34.238Z,13.82
2019-05-05T02:10:01.272Z,13.78
2019-05-05T02:12:28.856Z,13.76
2019-05-05T02:14:55.720Z,13.73
2019-05-05T02:17:24.601Z,13.63
2019-05-05T02:19:51.144Z,13.56
2019-05-05T02:22:18.031Z,13.48
2019-05-05T02:24:44.979Z,13.52
2019-05-05T02:27:11.923Z,13.51
2019-05-05T02:29:38.786Z,13.46
2019-05-05T02:32:06.527Z,13.39
2019-05-05T02:34:35.891Z,13.36
2019-05-05T02:37:05.233Z,13.34
2019-05-05T02:39:30.820Z,13.39
2019-05-05T02:41:57.798Z,13.38
2019-05-05T02:44:25.478Z,13.44
2019-05-05T02:46:55.019Z,13.48
2019-05-05T02:49:21.476Z,13.53
2019-05-05T02:51:48.415Z,13.60
2019-05-05T02:54:15.293Z,13.67
2019-05-05T02:56:43.621Z,13.73
2019-05-05T02:59:10.644Z,13.74
2019-05-05T03:01:37.583Z,13.66
2019-05-05T03:04:04.549Z,13.69
2019-05-05T03:06:31.474Z,13.69
2019-05-05T03:08:58.359Z,13.75
2019-05-05T03:11:25.235Z,13.82
2019-05-05T03:13:53.558Z,13.80
2019-05-05T03:16:20.555Z,13.77
2019-05-05T03:18:47.870Z,13.75
2019-05-05T03:21:15.117Z,13.76
2019-05-05T03:23:44.059Z,13.79
2019-05-05T03:26:11.031Z,13.83
2019-05-05T03:28:38.015Z,13.77
2019-05-05T03:31:05.241Z,13.76
2019-05-05T03:33:34.984Z,13.78
2019-05-05T03:36:03.520Z,13.79
2019-05-05T03:38:30.546Z,13.74
2019-05-05T03:40:57.428Z,13.57
2019-05-05T03:43:24.380Z,13.52
2019-05-05T03:45:51.237Z,13.52
2019-05-05T03:48:18.193Z,13.56
2019-05-05T03:50:45.094Z,13.60
2019-05-05T03:53:13.964Z,13.58
2019-05-05T03:55:40.699Z,13.45
2019-05-05T03:58:07.753Z,13.36
2019-05-05T04:00:34.637Z,13.40
2019-05-05T04:03:01.507Z,13.45
2019-05-05T04:05:28.417Z,13.45
2019-05-05T04:07:55.369Z,13.44
2019-05-05T04:10:24.384Z,13.45
2019-05-05T04:12:50.822Z,13.52
2019-05-05T04:15:17.785Z,13.62
2019-05-05T04:17:44.637Z,13.70
2019-05-05T04:20:11.544Z,13.81
2019-05-05T04:22:38.500Z,13.94
2019-05-05T04:25:05.433Z,14.00
2019-05-05T04:27:34.163Z,14.00
2019-05-05T04:30:00.923Z,14.04
2019-05-05T04:32:28.110Z,14.15
2019-05-05T04:34:54.987Z,14.20
2019-05-05T04:37:23.770Z,14.22
2019-05-05T04:39:50.420Z,14.32
2019-05-05T04:42:17.285Z,14.40
2019-05-05T04:44:44.915Z,14.42
2019-05-05T04:47:12.055Z,14.43
2019-05-05T04:49:38.913Z,14.40
2019-05-05T04:52:05.786Z,14.52
2019-05-05T04:54:33.482Z,14.68
2019-05-05T04:57:00.592Z,14.84
2019-05-05T04:59:27.819Z,14.99
2019-05-05T05:01:54.763Z,15.10
2019-05-05T05:04:21.661Z,15.07
2019-05-05T05:06:48.538Z,15.06
2019-05-05T05:09:15.417Z,15.04
2019-05-05T05:11:44.187Z,15.08
2019-05-05T05:14:10.890Z,15.15
2019-05-05T05:16:37.863Z,15.21
2019-05-05T05:19:04.797Z,15.24
2019-05-05T05:21:31.748Z,15.23
2019-05-05T05:23:58.629Z,15.21
2019-05-05T05:26:25.589Z,15.20
2019-05-05T05:28:53.845Z,15.24
2019-05-05T05:31:20.988Z,15.31
2019-05-05T05:33:47.857Z,15.40
2019-05-05T05:36:14.730Z,15.43
2019-05-05T05:38:43.640Z,15.46
2019-05-05T05:41:10.201Z,15.48
2019-05-05T05:43:37.166Z,15.49
2019-05-05T05:46:04.429Z,15.62
2019-05-05T05:48:31.484Z,15.71
2019-05-05T05:50:58.369Z,15.80
2019-05-05T05:53:25.327Z,15.88
2019-05-05T05:55:53.752Z,15.89
2019-05-05T05:58:20.830Z,15.93
2019-05-05T06:00:47.702Z,16.06
2019-05-05T06:03:14.594Z,16.34
2019-05-05T06:05:43.569Z,16.72
2019-05-05T06:08:10.763Z,16.81
2019-05-05T06:10:37.629Z,16.78
2019-05-05T06:13:05.879Z,16.89
2019-05-05T06:15:33.762Z,17.15
2019-05-05T06:18:00.916Z,17.45
2019-05-05T06:20:27.809Z,17.67
2019-05-05T06:22:54.752Z,17.95
2019-05-05T06:25:21.635Z,18.59
2019-05-05T06:27:48.912Z,19.05
2019-05-05T06:30:15.859Z,19.46
2019-05-05T06:32:43.740Z,19.66
2019-05-05T06:35:11.400Z,19.89
2019-05-05T06:37:38.321Z,20.26
2019-05-05T06:40:05.188Z,20.11
2019-05-05T06:42:34.163Z,19.89
2019-05-05T06:45:00.691Z,19.95
2019-05-05T06:47:27.951Z,20.52
2019-05-05T06:49:54.880Z,21.21
2019-05-05T06:52:21.744Z,21.81
2019-05-05T06:54:48.618Z,22.28
2019-05-05T06:57:15.495Z,22.81
2019-05-05T06:59:43.862Z,23.28
2019-05-05T07:02:11.354Z,23.65
2019-05-05T07:04:38.259Z,23.90
2019-05-05T07:07:05.374Z,24.22
2019-05-05T07:09:33.711Z,24.22
2019-05-05T07:12:00.661Z,24.69
2019-05-05T07:14:27.931Z,25.00
2019-05-05T07:16:54.805Z,25.29
2019-05-05T07:19:23.813Z,25.71
2019-05-05T07:21:50.313Z,26.07
2019-05-05T07:24:17.270Z,26.33
2019-05-05T07:26:44.695Z,26.62
2019-05-05T07:29:11.766Z,26.52
2019-05-05T07:31:39.077Z,26.09
2019-05-05T07:34:06.461Z,25.28
2019-05-05T07:36:34.103Z,24.22
2019-05-05T07:39:01.194Z,23.31
2019-05-05T07:41:29.712Z,22.74
2019-05-05T07:43:56.656Z,22.38
2019-05-05T07:46:24.163Z,22.37
2019-05-05T07:48:54.340Z,22.50
2019-05-05T07:51:20.862Z,22.77
2019-05-05T07:53:47.817Z,23.05
2019-05-05T07:56:14.781Z,23.29
2019-05-05T07:58:43.895Z,23.73
2019-05-05T08:01:10.965Z,23.57
2019-05-05T08:03:37.890Z,23.87
2019-05-05T08:06:04.782Z,23.95
2019-05-05T08:08:33.456Z,24.05
2019-05-05T08:11:00.335Z,23.81
2019-05-05T08:13:27.359Z,23.46
2019-05-05T08:15:59.663Z,22.72
2019-05-05T08:18:24.281Z,22.16
2019-05-05T08:20:51.331Z,22.23
2019-05-05T08:23:31.810Z,22.66
2019-05-05T08:25:49.478Z,22.85
2019-05-05T08:28:16.346Z,22.90
2019-05-05T08:30:44.119Z,22.51
2019-05-05T08:33:14.096Z,21.81
2019-05-05T08:35:40.876Z,21.31
2019-05-05T08:38:07.913Z,21.35
2019-05-05T08:40:34.880Z,21.47
2019-05-05T08:43:01.869Z,21.62
2019-05-05T08:45:28.778Z,21.62
2019-05-05T08:47:55.766Z,21.59
2019-05-05T08:50:26.732Z,21.56
2019-05-05T08:52:53.606Z,21.51
2019-05-05T08:55:19.954Z,21.35
2019-05-05T08:57:46.910Z,21.11
2019-05-05T09:00:14.173Z,21.09
2019-05-05T09:02:41.155Z,21.04
2019-05-05T09:05:08.080Z,20.96
2019-05-05T09:07:34.952Z,20.91
2019-05-05T09:10:03.827Z,20.82
2019-05-05T09:12:31.474Z,20.62
2019-05-05T09:14:58.375Z,20.47
2019-05-05T09:17:27.941Z,20.34
2019-05-05T09:19:53.930Z,20.21
2019-05-05T09:22:20.900Z,20.05
2019-05-05T09:24:47.934Z,20.00
2019-05-05T09:27:15.262Z,20.06
2019-05-05T09:29:43.960Z,20.16
2019-05-05T09:32:10.803Z,20.27
2019-05-05T09:34:37.804Z,20.35
2019-05-05T09:37:04.717Z,20.34
2019-05-05T09:39:31.600Z,20.31
2019-05-05T09:41:58.892Z,20.13
2019-05-05T09:44:25.814Z,19.90
2019-05-05T09:46:53.852Z,19.78
2019-05-05T09:49:20.986Z,19.80
2019-05-05T09:51:47.916Z,19.91
2019-05-05T09:54:17.364Z,19.98
2019-05-05T09:56:44.470Z,19.96
2019-05-05T09:59:13.472Z,19.92
2019-05-05T10:01:40.103Z,19.95
2019-05-05T10:04:06.979Z,19.98
2019-05-05T10:06:33.955Z,19.98
2019-05-05T10:09:01.225Z,20.03
2019-05-05T10:11:29.795Z,20.09
2019-05-05T10:13:56.809Z,20.03
2019-05-05T10:16:23.665Z,19.92
2019-05-05T10:18:50.564Z,19.88
2019-05-05T10:21:17.921Z,19.88
2019-05-05T10:23:44.883Z,19.89
2019-05-05T10:26:11.768Z,19.93
2019-05-05T10:28:38.785Z,19.94
2019-05-05T10:31:05.669Z,19.91
2019-05-05T10:33:32.580Z,19.82
2019-05-05T10:35:59.528Z,19.74
2019-05-05T10:38:26.426Z,19.70
2019-05-05T10:40:53.722Z,19.71
2019-05-05T10:43:20.832Z,19.76
2019-05-05T10:45:47.790Z,19.79
2019-05-05T10:48:14.670Z,19.81
2019-05-05T10:50:44.283Z,19.82
2019-05-05T10:53:10.641Z,19.86
2019-05-05T10:55:37.512Z,19.84
2019-05-05T10:58:04.402Z,19.81
2019-05-05T11:00:33.711Z,19.67
2019-05-05T11:03:00.722Z,19.60
2019-05-05T11:05:27.651Z,19.55
2019-05-05T11:07:54.565Z,19.57
2019-05-05T11:10:21.439Z,19.63
2019-05-05T11:12:48.461Z,19.72
2019-05-05T11:15:15.429Z,19.83
2019-05-05T11:17:43.930Z,19.80
2019-05-05T11:20:11.017Z,19.77
2019-05-05T11:22:37.904Z,19.70
2019-05-05T11:25:05.179Z,19.67
2019-05-05T11:27:34.109Z,19.68
2019-05-05T11:30:01.096Z,19.72
2019-05-05T11:32:28.310Z,19.74
2019-05-05T11:34:55.194Z,19.75
2019-05-05T11:37:22.445Z,19.76
2019-05-05T11:39:49.357Z,19.82
2019-05-05T11:42:16.279Z,19.83
2019-05-05T11:44:43.206Z,19.83
2019-05-05T11:47:10.322Z,19.83
2019-05-05T11:49:37.196Z,19.85
2019-05-05T11:52:04.678Z,19.91
2019-05-05T11:54:31.797Z,19.82
2019-05-05T11:56:58.736Z,19.84
2019-05-05T11:59:25.719Z,19.86
2019-05-05T12:01:54.886Z,19.87
2019-05-05T12:04:23.975Z,19.90
2019-05-05T12:06:51.104Z,19.91
2019-05-05T12:09:18.081Z,19.91
2019-05-05T12:11:45.017Z,19.98
2019-05-05T12:14:14.188Z,20.03
2019-05-05T12:16:40.490Z,19.99
2019-05-05T12:19:07.437Z,19.97
2019-05-05T12:21:34.311Z,19.96
2019-05-05T12:24:01.255Z,19.91
2019-05-05T12:26:29.719Z,19.84
2019-05-05T12:28:56.588Z,19.80
2019-05-05T12:31:24.765Z,19.82
2019-05-05T12:33:51.931Z,19.81
2019-05-05T12:36:19.153Z,19.74
2019-05-05T12:38:46.404Z,19.71
2019-05-05T12:41:14.795Z,19.64
2019-05-05T12:43:44.142Z,19.67
2019-05-05T12:46:13.786Z,19.68
2019-05-05T12:48:40.940Z,19.70
2019-05-05T12:51:07.812Z,19.72
2019-05-05T12:53:34.715Z,19.71
2019-05-05T12:56:01.650Z,19.64
2019-05-05T12:58:28.633Z,19.64
2019-05-05T13:00:55.556Z,19.55
2019-05-05T13:03:23.993Z,19.47
2019-05-05T13:05:53.557Z,19.47
2019-05-05T13:08:20.648Z,19.47
2019-05-05T13:10:47.509Z,19.46
2019-05-05T13:13:14.457Z,19.41
2019-05-05T13:15:41.333Z,19.33
2019-05-05T13:18:08.309Z,19.40
2019-05-05T13:20:35.642Z,19.54
2019-05-05T13:23:04.159Z,19.69
2019-05-05T13:25:31.166Z,19.80
2019-05-05T13:27:58.031Z,19.82
2019-05-05T13:30:24.909Z,19.83
2019-05-05T13:32:51.872Z,19.85
2019-05-05T13:35:18.814Z,19.86
2019-05-05T13:37:45.698Z,19.89
2019-05-05T13:40:12.951Z,19.86
2019-05-05T13:42:39.978Z,19.85
2019-05-05T13:45:06.953Z,19.84
2019-05-05T13:47:34.481Z,19.76
2019-05-05T13:50:03.597Z,19.75
2019-05-05T13:52:30.230Z,19.74
2019-05-05T13:54:57.671Z,19.72
2019-05-05T13:57:24.759Z,19.72
2019-05-05T13:59:51.759Z,19.71
2019-05-05T14:02:18.621Z,19.79
2019-05-05T14:04:45.878Z,20.04
2019-05-05T14:07:12.775Z,20.14
2019-05-05T14:09:39.678Z,20.19
2019-05-05T14:12:06.709Z,20.17
2019-05-05T14:14:33.719Z,20.29
2019-05-05T14:17:00.649Z,20.35
2019-05-05T14:19:27.685Z,20.47
2019-05-05T14:21:54.570Z,20.60
2019-05-05T14:24:21.528Z,20.67
2019-05-05T14:26:48.701Z,20.64
2019-05-05T14:29:15.591Z,20.63
2019-05-05T14:31:44.322Z,20.65
2019-05-05T14:34:13.962Z,20.70
2019-05-05T14:36:41.400Z,20.77
2019-05-05T14:39:08.264Z,20.80
2019-05-05T14:41:37.250Z,20.82
2019-05-05T14:44:04.483Z,20.79
2019-05-05T14:46:31.731Z,20.77
2019-05-05T14:48:58.699Z,20.78
2019-05-05T14:51:25.656Z,20.79
2019-05-05T14:53:54.248Z,20.70
2019-05-05T14:56:21.854Z,20.74
2019-05-05T14:58:49.685Z,20.83
2019-05-05T15:01:16.718Z,20.78
2019-05-05T15:03:44.481Z,20.74
2019-05-05T15:06:14.702Z,20.76
2019-05-05T15:08:41.396Z,20.77
2019-05-05T15:11:08.954Z,20.74
2019-05-05T15:13:36.312Z,20.67
2019-05-05T15:16:04.128Z,20.54
2019-05-05T15:18:31.180Z,20.40
2019-05-05T15:20:58.052Z,20.25
2019-05-05T15:23:25.096Z,20.16
2019-05-05T15:25:53.977Z,20.09
2019-05-05T15:28:21.064Z,20.07
2019-05-05T15:30:48.052Z,20.08
2019-05-05T15:33:14.997Z,20.06
2019-05-05T15:35:44.509Z,20.08
2019-05-05T15:38:10.464Z,20.12
2019-05-05T15:40:37.336Z,20.13
2019-05-05T15:43:04.252Z,20.12
2019-05-05T15:45:31.506Z,20.13
2019-05-05T15:47:58.564Z,20.20
2019-05-05T15:50:25.498Z,20.27
2019-05-05T15:52:54.499Z,20.29
2019-05-05T15:55:21.577Z,20.31
2019-05-05T15:57:48.739Z,20.33
2019-05-05T16:00:16.141Z,20.32
2019-05-05T16:02:44.316Z,20.20
2019-05-05T16:05:13.601Z,20.12
2019-05-05T16:07:40.297Z,20.11
2019-05-05T16:10:07.314Z,20.07
2019-05-05T16:12:39.848Z,20.02
2019-05-05T16:15:08.235Z,19.94
2019-05-05T16:17:35.187Z,19.96
2019-05-05T16:20:04.414Z,20.03
2019-05-05T16:22:30.685Z,20.08
2019-05-05T16:24:57.588Z,20.08
2019-05-05T16:27:25.761Z,19.97
2019-05-05T16:29:53.121Z,19.91
2019-05-05T16:32:22.224Z,19.85
2019-05-05T16:34:48.984Z,19.83
2019-05-05T16:37:15.912Z,19.74
2019-05-05T16:39:43.939Z,19.69
2019-05-05T16:42:15.032Z,19.65
2019-05-05T16:44:40.516Z,19.60
2019-05-05T16:47:07.723Z,19.62
2019-05-05T16:49:35.505Z,19.63
2019-05-05T16:52:04.077Z,19.61
2019-05-05T16:54:33.560Z,19.59
2019-05-05T16:57:00.078Z,19.50
2019-05-05T16:59:27.001Z,19.45
2019-05-05T17:01:54.175Z,19.43
2019-05-05T17:04:21.196Z,19.43
2019-05-05T17:06:48.151Z,19.46
2019-05-05T17:09:15.208Z,19.46
2019-05-05T17:11:43.968Z,19.49
2019-05-05T17:14:12.306Z,19.46
2019-05-05T17:16:39.269Z,19.39
2019-05-05T17:19:06.671Z,19.37
2019-05-05T17:21:34.095Z,19.34
2019-05-05T17:24:01.178Z,19.34
2019-05-05T17:26:28.108Z,19.33
2019-05-05T17:28:55.026Z,19.34
2019-05-05T17:31:24.243Z,19.33
2019-05-05T17:33:50.857Z,19.33
2019-05-05T17:36:17.717Z,19.27
2019-05-05T17:38:44.942Z,19.27
2019-05-05T17:41:29.413Z,19.26
2019-05-05T17:43:56.560Z,19.28
2019-05-05T17:46:24.239Z,19.23
2019-05-05T17:48:51.211Z,19.21
2019-05-05T17:51:18.160Z,19.20
2019-05-05T17:53:45.030Z,19.21
2019-05-05T17:56:13.507Z,19.22
2019-05-05T17:58:40.601Z,19.19
2019-05-05T18:01:07.829Z,19.14
2019-05-05T18:03:34.804Z,19.11
2019-05-05T18:06:03.870Z,19.09
2019-05-05T18:08:30.602Z,19.09
2019-05-05T18:10:57.499Z,19.04
2019-05-05T18:13:24.390Z,19.01
2019-05-05T18:15:51.768Z,18.98
2019-05-05T18:18:18.743Z,18.95
2019-05-05T18:20:45.722Z,18.91
2019-05-05T18:23:13.881Z,18.84
2019-05-05T18:25:40.946Z,18.79
2019-05-05T18:28:17.070Z,18.75
2019-05-05T18:30:36.921Z,18.75
2019-05-05T18:33:04.204Z,18.69
2019-05-05T18:35:31.457Z,18.56
2019-05-05T18:37:58.326Z,18.47
2019-05-05T18:40:25.439Z,18.40
2019-05-05T18:42:54.257Z,18.29
2019-05-05T18:45:21.062Z,18.26
2019-05-05T18:47:48.424Z,18.18
2019-05-05T18:50:15.359Z,18.12
2019-05-05T18:52:45.065Z,18.14
2019-05-05T18:55:10.894Z,18.10
2019-05-05T18:57:37.844Z,18.06
2019-05-05T19:00:04.818Z,18.07
2019-05-05T19:02:34.642Z,18.07
2019-05-05T19:05:01.867Z,18.06
2019-05-05T19:07:30.589Z,18.04
2019-05-05T19:09:57.548Z,18.04
2019-05-05T19:12:24.482Z,18.01
2019-05-05T19:14:51.465Z,18.04
2019-05-05T19:17:18.427Z,18.03
2019-05-05T19:19:47.080Z,17.98
2019-05-05T19:22:14.124Z,17.96
2019-05-05T19:24:41.019Z,17.89
2019-05-05T19:29:54.763Z,17.86
2019-05-05T19:32:21.881Z,17.86
2019-05-05T19:34:49.161Z,17.84
2019-05-05T19:37:16.043Z,17.79
2019-05-05T19:39:43.026Z,17.70
2019-05-05T19:42:10.273Z,17.62
2019-05-05T19:44:37.145Z,17.55
2019-05-05T19:47:05.832Z,17.47
2019-05-05T19:49:33.774Z,17.40
2019-05-05T19:52:01.255Z,17.40
2019-05-05T19:54:28.279Z,17.32
2019-05-05T19:56:55.226Z,17.27
2019-05-05T19:59:22.161Z,17.27
2019-05-05T20:01:49.157Z,17.25
2019-05-05T20:04:16.388Z,17.23
2019-05-05T20:06:44.294Z,17.27
2019-05-05T20:09:13.911Z,17.32
2019-05-05T20:11:40.156Z,17.38
2019-05-05T20:14:10.227Z,17.40
2019-05-05T20:16:35.630Z,17.43
2019-05-05T20:19:04.209Z,17.42
2019-05-05T20:21:31.581Z,17.40
2019-05-05T20:23:58.453Z,17.36
2019-05-05T20:26:25.659Z,17.33
2019-05-05T20:28:55.271Z,17.31
2019-05-05T20:31:21.250Z,17.26
2019-05-05T20:33:48.142Z,17.23
2019-05-05T20:36:15.380Z,17.20
2019-05-05T20:38:44.029Z,17.19
2019-05-05T20:41:11.095Z,17.17
2019-05-05T20:43:38.158Z,17.18
2019-05-05T20:46:05.121Z,17.22
2019-05-05T20:48:32.070Z,17.21
2019-05-05T20:50:59.309Z,17.21
2019-05-05T20:53:26.256Z,17.21
2019-05-05T20:55:54.438Z,17.18
2019-05-05T20:58:23.861Z,17.15
2019-05-05T21:00:50.613Z,17.10
2019-05-05T21:03:17.549Z,17.03
2019-05-05T21:05:44.463Z,16.96
2019-05-05T21:08:11.420Z,16.93
2019-05-05T21:10:38.365Z,16.91
2019-05-05T21:13:05.294Z,16.87
2019-05-05T21:15:34.027Z,16.86
2019-05-05T21:18:00.767Z,16.82
2019-05-05T21:20:27.781Z,16.79
2019-05-05T21:22:54.732Z,16.72
2019-05-05T21:25:23.735Z,16.64
2019-05-05T21:27:50.177Z,16.56
2019-05-05T21:30:17.072Z,16.53
2019-05-05T21:32:44.031Z,16.50
2019-05-05T21:35:11.294Z,16.42
2019-05-05T21:37:38.449Z,16.39
2019-05-05T21:40:05.395Z,16.37
2019-05-05T21:42:32.276Z,16.35
2019-05-05T21:45:00.302Z,16.30
2019-05-05T21:47:27.589Z,16.23
2019-05-05T21:49:54.542Z,16.19
2019-05-05T21:52:23.894Z,16.12
2019-05-05T21:54:50.909Z,16.04
2019-05-05T21:57:17.788Z,15.99
2019-05-05T21:59:54.891Z,16.03
2019-05-05T22:02:15.768Z,16.02
2019-05-05T22:04:42.668Z,16.00
2019-05-05T22:07:09.557Z,16.00
2019-05-05T22:09:36.815Z,16.03
2019-05-05T22:12:05.828Z,15.99
2019-05-05T22:14:34.119Z,16.00
2019-05-05T22:17:01.460Z,15.97
2019-05-05T22:19:29.410Z,15.95
2019-05-05T22:21:56.274Z,15.96
2019-05-05T22:24:23.530Z,15.96
2019-05-05T22:26:50.476Z,15.91
2019-05-05T22:29:17.427Z,15.88
2019-05-05T22:31:44.292Z,15.87
2019-05-05T22:34:11.157Z,15.85
2019-05-05T22:36:38.086Z,15.87
2019-05-05T22:39:05.044Z,15.89
2019-05-05T22:41:33.765Z,15.81
2019-05-05T22:44:00.677Z,15.74
2019-05-05T22:46:27.608Z,15.78
2019-05-05T22:48:54.615Z,15.78
2019-05-05T22:51:21.548Z,15.77
2019-05-05T22:53:48.521Z,15.77
2019-05-05T22:56:15.469Z,15.73
2019-05-05T22:58:43.886Z,15.71
2019-05-05T23:01:11.002Z,15.69
2019-05-05T23:03:37.947Z,15.66
2019-05-05T23:06:04.817Z,15.64
2019-05-05T23:08:31.715Z,15.61
2019-05-05T23:10:58.675Z,15.65
2019-05-05T23:13:25.912Z,15.60
2019-05-05T23:15:54.432Z,15.38
2019-05-05T23:18:21.569Z,15.28
2019-05-05T23:20:48.455Z,15.29
2019-05-05T23:23:15.450Z,15.34
2019-05-05T23:25:45.601Z,15.39
2019-05-05T23:28:11.717Z,15.36
2019-05-05T23:30:41.873Z,15.28
2019-05-05T23:33:07.176Z,15.20
2019-05-05T23:35:34.439Z,15.26
2019-05-05T23:38:03.397Z,15.29
2019-05-05T23:40:30.100Z,15.30
2019-05-05T23:42:57.352Z,15.25
2019-05-05T23:45:24.946Z,15.25
2019-05-05T23:47:54.449Z,15.26
2019-05-05T23:50:24.545Z,15.24
2019-05-05T23:52:54.122Z,15.18
2019-05-05T23:55:20.392Z,15.14
2019-05-05T23:57:48.401Z,15.08
